ADDS METAR Data INFO
IDs: Format: Raw Decoded Include TAF

Data at: 0919 UTC 17 Oct 2017

KAZO 162353Z 00000KT 10SM CLR 11/02 A3025
KAZO 162253Z 26003KT 10SM CLR 12/01 A3025
KAZO 162053Z 26009KT 10SM CLR 14/01 A3026
KAZO 161953Z 30008KT 10SM FEW049 BKN065 14/02 A3026
KAZO 161653Z 27010G15KT 10SM BKN026 BKN038 OVC046 12/05 A3031 RMK AO2 SLP266 P0000 T01220050
KAZO 161553Z AUTO 160005KT 10SM BKN075 11/07 A3030 RMK AO2 RAB03E24 SLP266 P0000 T01110067
KAZO 161453Z AUTO 170003KT 10SM OVC012 10/06 A3031
KAZO 161353Z AUTO 140003KT 10SM BR BKN009 BKN055 OVC085 09/07 A3030
KAZO 161253Z AUTO 00000KT 6SM BR BKN004 BKN012 008/07 A3029
KAZO 161228Z AUTO 00000KT 6SM BR BKN006 008/06 A3028
KAZO 161200Z AUTO 00000KT 6SM BR FEW011 07/05 A3027
KAZO 161053Z AUTO 00000 8SM OVC039 08/06 A3026
KAZO 160953Z AUTO 00000 10SM BKN 030 BKN060 OVC075 07/05 A3024
KAZO 160253Z AUTO 31005 10SM CLR 08/04 A3019
KAZO 160153Z AUTO 31006 10SM FEW055 09/05 A3017
KAZO 160053Z AUTO 32008 10SM BKN050 09/06 A3015
KAZO 152353Z AUTO 31008 10SM SCT043 09/06 A3012
KAZO 152253Z AUTO 32010 10SM FEW060 A2992